Time;durP1;ratioP1;P1;durP2;ratioP2;P2;SDS_P1;SDS_P2;PMS_P1;PMS_P2;Temp;Humidity;BMP_temperature;BMP_pressure;BME280_temperature;BME280_humidity;BME280_pressure;Samples;Min_cycle;Max_cycle;Signal;HPM_P1;HPM_P2
2021/12/02 00:02:09;;;;;;;8.20;2.08;;;7.80;69.30;;;;;;5097985;28;20475;-55
2021/12/02 00:04:38;;;;;;;4.90;1.40;;;7.90;68.80;;;;;;5098280;28;20087;-56
2021/12/02 00:07:05;;;;;;;9.18;2.40;;;7.90;68.50;;;;;;5098141;28;20103;-54
2021/12/02 00:09:33;;;;;;;8.60;2.17;;;7.90;68.80;;;;;;5097792;28;20034;-54
2021/12/02 00:11:59;;;;;;;11.57;2.05;;;7.80;69.10;;;;;;5097995;28;20576;-55
2021/12/02 00:14:27;;;;;;;12.27;2.22;;;7.80;68.90;;;;;;5097960;28;20390;-56
2021/12/02 00:22:05;;;;;;;11.77;2.22;;;7.70;68.70;;;;;;5102158;28;20031;-56
2021/12/02 00:24:35;;;;;;;9.32;2.05;;;7.60;68.60;;;;;;5102012;28;20024;-55
2021/12/02 00:27:05;;;;;;;11.07;2.05;;;7.60;69.10;;;;;;5101546;28;20056;-56
2021/12/02 00:29:33;;;;;;;7.65;2.20;;;7.60;68.50;;;;;;5101739;28;20062;-54
2021/12/02 00:32:04;;;;;;;10.35;1.98;;;7.60;68.40;;;;;;5102013;28;20027;-51
2021/12/02 00:34:30;;;;;;;8.38;1.80;;;7.50;70.20;;;;;;5101580;28;20060;-55
2021/12/02 00:36:57;;;;;;;16.98;2.10;;;7.60;69.70;;;;;;5101458;28;20031;-55
2021/12/02 00:39:23;;;;;;;12.23;3.00;;;7.60;68.70;;;;;;5101623;28;20031;-54
2021/12/02 00:41:49;;;;;;;8.27;2.22;;;7.60;69.20;;;;;;5101714;28;20028;-55
2021/12/02 00:44:18;;;;;;;12.00;2.35;;;7.60;69.10;;;;;;5101794;28;20031;-55
2021/12/02 00:46:45;;;;;;;11.57;1.80;;;7.60;68.90;;;;;;5101370;28;20104;-55
2021/12/02 00:49:15;;;;;;;8.23;1.95;;;7.60;69.00;;;;;;5101498;28;20503;-56
2021/12/02 00:51:44;;;;;;;8.90;2.10;;;7.60;69.00;;;;;;5101398;28;20032;-56
2021/12/02 00:54:11;;;;;;;9.55;1.85;;;7.60;68.70;;;;;;5101449;28;20021;-55
2021/12/02 00:56:39;;;;;;;7.63;1.95;;;7.60;68.80;;;;;;5101283;28;20049;-54
2021/12/02 00:59:06;;;;;;;10.90;2.40;;;7.50;68.30;;;;;;5101382;28;20072;-55
2021/12/02 01:01:36;;;;;;;8.60;2.25;;;7.50;68.80;;;;;;5101369;28;20043;-55
2021/12/02 01:04:08;;;;;;;9.02;2.80;;;7.50;68.60;;;;;;5099709;28;20034;-56
2021/12/02 01:06:34;;;;;;;15.50;2.58;;;7.50;68.30;;;;;;5101578;28;20024;-55
2021/12/02 01:09:00;;;;;;;10.32;1.90;;;7.40;68.70;;;;;;5100969;28;20031;-55
2021/12/02 01:11:26;;;;;;;12.63;2.40;;;7.50;68.30;;;;;;5100991;28;20024;-54
2021/12/02 01:13:52;;;;;;;6.30;2.08;;;7.50;68.30;;;;;;5101262;28;20031;-55
2021/12/02 01:16:19;;;;;;;12.32;2.42;;;7.50;68.00;;;;;;5101059;28;20020;-54
2021/12/02 01:18:45;;;;;;;5.97;1.80;;;7.50;67.70;;;;;;5100671;28;20012;-55
2021/12/02 01:21:18;;;;;;;7.43;1.90;;;7.40;67.60;;;;;;5100846;28;20024;-55
2021/12/02 01:23:48;;;;;;;11.40;1.80;;;7.40;67.40;;;;;;5101253;28;20095;-54
2021/12/02 01:26:16;;;;;;;7.72;1.88;;;7.40;67.00;;;;;;5100313;28;20414;-55
2021/12/02 01:28:43;;;;;;;7.82;2.13;;;7.40;67.10;;;;;;5100924;28;20051;-56
2021/12/02 01:31:11;;;;;;;9.32;1.98;;;7.40;66.90;;;;;;5100715;28;20410;-55
2021/12/02 01:33:39;;;;;;;5.72;2.10;;;7.40;67.00;;;;;;5100477;28;20024;-55
2021/12/02 01:36:06;;;;;;;5.60;1.70;;;7.30;66.60;;;;;;5100955;28;20398;-56
2021/12/02 01:38:33;;;;;;;6.95;2.00;;;7.30;66.60;;;;;;5100285;28;20016;-56
2021/12/02 01:41:01;;;;;;;5.95;2.20;;;7.30;66.60;;;;;;5100450;28;20020;-56
2021/12/02 01:43:52;;;;;;;6.00;2.30;;;7.30;66.60;;;;;;5100599;28;20503;-56
2021/12/02 01:46:23;;;;;;;8.25;2.42;;;7.30;66.60;;;;;;5100344;28;20020;-54
2021/12/02 01:49:03;;;;;;;13.48;2.53;;;7.30;66.70;;;;;;5100299;28;20031;-55
2021/12/02 01:51:31;;;;;;;5.40;1.98;;;7.30;66.70;;;;;;5100305;28;20055;-55
2021/12/02 01:54:17;;;;;;;6.82;1.80;;;7.20;66.50;;;;;;5100336;28;20032;-52
2021/12/02 01:56:53;;;;;;;11.00;2.35;;;7.20;66.50;;;;;;5100481;28;20032;-55
2021/12/02 01:59:22;;;;;;;9.93;2.30;;;7.20;66.50;;;;;;5100252;28;20021;-55
2021/12/02 02:01:51;;;;;;;5.55;2.03;;;7.10;66.60;;;;;;5100564;28;20035;-56
2021/12/02 02:04:19;;;;;;;7.80;3.03;;;7.10;66.90;;;;;;5099923;28;20025;-54
2021/12/02 02:07:14;;;;;;;8.65;2.05;;;7.10;66.80;;;;;;5099959;28;20020;-55
2021/12/02 02:09:41;;;;;;;9.55;2.63;;;7.00;66.50;;;;;;5099905;28;20028;-55
2021/12/02 02:12:09;;;;;;;8.55;2.63;;;7.00;66.40;;;;;;5099821;28;20086;-54
2021/12/02 02:14:36;;;;;;;6.93;2.50;;;7.00;66.70;;;;;;5100200;28;20025;-53
2021/12/02 02:17:09;;;;;;;8.15;2.80;;;6.90;66.40;;;;;;5099664;28;20020;-55
2021/12/02 02:19:35;;;;;;;14.20;3.20;;;6.90;66.70;;;;;;5099997;28;20483;-53
2021/12/02 02:22:01;;;;;;;10.13;2.88;;;6.80;66.80;;;;;;5100086;28;20107;-55
2021/12/02 02:24:29;;;;;;;10.95;2.60;;;6.80;66.70;;;;;;5099755;28;20085;-54
2021/12/02 02:26:55;;;;;;;9.63;3.08;;;6.70;66.80;;;;;;5099721;28;20103;-55
2021/12/02 02:29:22;;;;;;;7.18;2.78;;;6.70;66.70;;;;;;5099523;28;20429;-55
2021/12/02 02:31:49;;;;;;;8.07;2.63;;;6.60;66.50;;;;;;5099653;28;20028;-55
2021/12/02 02:34:15;;;;;;;9.68;2.95;;;6.60;66.80;;;;;;5099411;28;20111;-56
2021/12/02 02:36:51;;;;;;;9.50;2.45;;;6.50;67.00;;;;;;5099547;28;20047;-56
2021/12/02 02:39:19;;;;;;;7.13;2.63;;;6.50;67.20;;;;;;5098676;28;20024;-55
2021/12/02 02:41:46;;;;;;;7.25;2.50;;;6.50;67.30;;;;;;5099339;28;20032;-55
2021/12/02 02:44:13;;;;;;;9.50;3.25;;;6.60;67.10;;;;;;5099238;28;20506;-55
2021/12/02 02:46:41;;;;;;;9.32;2.60;;;6.60;67.20;;;;;;5099359;28;20032;-54
2021/12/02 02:49:11;;;;;;;7.63;2.47;;;6.60;67.00;;;;;;5099323;28;20107;-55
2021/12/02 02:51:38;;;;;;;6.47;2.50;;;6.60;66.90;;;;;;5099302;28;20021;-55
2021/12/02 02:54:07;;;;;;;7.82;2.35;;;6.70;67.00;;;;;;5098941;28;20024;-54
2021/12/02 02:56:37;;;;;;;11.50;2.75;;;6.60;67.30;;;;;;5098772;28;20024;-56
2021/12/02 02:59:11;;;;;;;6.40;2.50;;;6.60;66.80;;;;;;5098884;28;20027;-55
2021/12/02 03:12:35;;;;;;;8.50;2.50;;;6.50;66.70;;;;;;5098795;28;20039;-56
2021/12/02 03:17:30;;;;;;;5.45;1.88;;;6.40;66.90;;;;;;5098593;28;20440;-55
2021/12/02 03:19:56;;;;;;;5.80;2.03;;;6.40;66.90;;;;;;5098753;28;20027;-56
2021/12/02 03:22:22;;;;;;;5.88;2.15;;;6.30;67.20;;;;;;5098701;28;20020;-54
2021/12/02 03:24:48;;;;;;;5.30;2.10;;;6.30;67.40;;;;;;5098919;28;20024;-54
2021/12/02 03:27:14;;;;;;;8.18;2.72;;;6.30;67.50;;;;;;5098168;28;20040;-55
2021/12/02 03:29:40;;;;;;;7.45;2.67;;;6.30;67.30;;;;;;5098612;28;20016;-55
2021/12/02 03:32:10;;;;;;;9.80;2.83;;;6.30;67.30;;;;;;5098426;28;20035;-52
2021/12/02 03:34:40;;;;;;;11.02;2.78;;;6.20;67.10;;;;;;5098491;28;20099;-55
2021/12/02 03:37:06;;;;;;;6.28;2.53;;;6.20;66.90;;;;;;5098544;28;20024;-54
2021/12/02 03:39:32;;;;;;;8.68;2.97;;;6.20;66.80;;;;;;5098273;28;20013;-54
2021/12/02 03:41:59;;;;;;;7.15;2.60;;;6.10;66.80;;;;;;5098241;28;20020;-54
2021/12/02 03:44:25;;;;;;;7.68;2.53;;;6.10;66.90;;;;;;5098115;28;20028;-55
2021/12/02 03:46:52;;;;;;;7.32;2.65;;;6.00;67.10;;;;;;5098145;28;20048;-56
2021/12/02 03:49:18;;;;;;;8.90;2.45;;;6.00;67.10;;;;;;5097987;28;20024;-55
2021/12/02 03:51:44;;;;;;;9.07;3.00;;;5.90;66.90;;;;;;5098107;28;20032;-52
2021/12/02 03:54:09;;;;;;;5.10;2.83;;;5.90;67.00;;;;;;5097923;28;20024;-56
2021/12/02 03:56:35;;;;;;;8.73;2.60;;;5.90;66.60;;;;;;5098252;28;20028;-55
2021/12/02 03:59:01;;;;;;;5.03;2.10;;;5.80;66.80;;;;;;5097878;28;20024;-55
2021/12/02 04:01:27;;;;;;;8.85;2.75;;;5.80;66.90;;;;;;5098024;28;20024;-53
2021/12/02 04:03:53;;;;;;;8.15;2.33;;;5.70;67.00;;;;;;5098125;28;20020;-56
2021/12/02 04:06:19;;;;;;;7.13;3.00;;;5.70;66.80;;;;;;5098375;28;20020;-53
2021/12/02 04:08:50;;;;;;;4.22;2.05;;;5.70;66.80;;;;;;5097781;28;20024;-55
2021/12/02 04:17:28;;;;;;;5.43;1.83;;;5.60;67.10;;;;;;5031138;28;20042;-52
2021/12/02 04:19:54;;;;;;;7.82;2.22;;;5.60;67.30;;;;;;5080913;28;20055;-55
2021/12/02 04:22:20;;;;;;;6.32;1.92;;;5.50;67.00;;;;;;5097962;28;20502;-56
2021/12/02 04:24:46;;;;;;;5.43;2.10;;;5.50;66.80;;;;;;5097539;28;20483;-55
2021/12/02 04:27:11;;;;;;;6.38;2.03;;;5.50;67.00;;;;;;5097513;28;20044;-55
2021/12/02 04:29:37;;;;;;;7.70;2.13;;;5.40;66.80;;;;;;5097900;28;20032;-55
2021/12/02 04:32:04;;;;;;;6.78;1.83;;;5.40;67.20;;;;;;5098201;28;20028;-56
2021/12/02 04:34:30;;;;;;;7.65;2.78;;;5.40;66.80;;;;;;5097789;28;20025;-54
2021/12/02 04:36:55;;;;;;;6.72;2.30;;;5.40;66.90;;;;;;5097699;28;20387;-55
2021/12/02 04:39:21;;;;;;;7.00;1.67;;;5.40;66.80;;;;;;5097963;28;20023;-53
2021/12/02 04:41:47;;;;;;;4.50;1.45;;;5.30;67.10;;;;;;5097672;28;20054;-55
2021/12/02 04:44:18;;;;;;;4.90;1.80;;;5.30;67.20;;;;;;5097972;28;20020;-56
2021/12/02 04:46:44;;;;;;;3.72;1.60;;;5.30;66.80;;;;;;5097316;28;20032;-54
2021/12/02 04:49:10;;;;;;;4.60;1.60;;;5.20;67.00;;;;;;5097298;28;20109;-54
2021/12/02 04:51:36;;;;;;;4.60;1.77;;;5.10;67.20;;;;;;5097395;28;20053;-55
2021/12/02 04:54:02;;;;;;;4.55;2.00;;;5.10;67.30;;;;;;5097215;28;20035;-55
2021/12/02 04:56:27;;;;;;;3.60;1.50;;;5.10;67.30;;;;;;5097276;28;20032;-56
2021/12/02 04:58:53;;;;;;;3.22;1.42;;;5.00;67.30;;;;;;5097568;28;20091;-56
2021/12/02 05:01:19;;;;;;;4.95;1.60;;;5.00;67.20;;;;;;5099011;28;20106;-56
2021/12/02 05:03:45;;;;;;;6.32;1.70;;;4.90;67.20;;;;;;5100895;28;20105;-55
2021/12/02 05:06:11;;;;;;;2.92;1.50;;;4.90;67.20;;;;;;5101427;28;20077;-55
2021/12/02 05:08:36;;;;;;;3.35;1.60;;;4.80;67.00;;;;;;5101041;28;20035;-56
2021/12/02 05:11:02;;;;;;;4.88;2.10;;;4.80;67.40;;;;;;5101175;28;20031;-55
2021/12/02 05:13:28;;;;;;;6.53;1.65;;;4.80;67.20;;;;;;5100382;28;20046;-54
2021/12/02 05:15:54;;;;;;;3.28;1.40;;;4.80;67.30;;;;;;5100717;28;20024;-56
2021/12/02 05:18:20;;;;;;;4.88;1.50;;;4.70;67.20;;;;;;5100638;28;20030;-56
2021/12/02 05:20:47;;;;;;;5.32;1.70;;;4.70;66.90;;;;;;5100774;28;20050;-55
2021/12/02 05:23:13;;;;;;;4.97;1.98;;;4.70;67.40;;;;;;5100838;28;20089;-56
2021/12/02 05:25:43;;;;;;;7.07;1.70;;;4.60;67.10;;;;;;5100525;28;20095;-55
2021/12/02 05:28:09;;;;;;;4.55;1.50;;;4.60;67.00;;;;;;5100908;28;20063;-55
2021/12/02 05:30:35;;;;;;;4.28;1.42;;;4.50;67.40;;;;;;5100345;28;20521;-55
2021/12/02 05:33:00;;;;;;;3.17;1.60;;;4.50;67.30;;;;;;5100671;28;20020;-54
2021/12/02 05:35:26;;;;;;;6.32;1.50;;;4.50;67.40;;;;;;5100335;28;20525;-54
2021/12/02 05:37:52;;;;;;;4.28;1.35;;;4.40;67.50;;;;;;5100456;28;20023;-56
2021/12/02 05:40:18;;;;;;;6.43;1.70;;;4.40;67.30;;;;;;5100138;28;20024;-55
2021/12/02 05:42:43;;;;;;;3.90;1.70;;;4.40;67.30;;;;;;5100174;28;20024;-54
2021/12/02 05:45:09;;;;;;;6.53;1.70;;;4.40;67.40;;;;;;5100285;28;20024;-53
2021/12/02 05:47:35;;;;;;;6.90;1.90;;;4.30;67.20;;;;;;5099994;28;20027;-55
2021/12/02 05:50:01;;;;;;;5.50;1.77;;;4.30;67.10;;;;;;5100373;28;20028;-54
2021/12/02 05:52:27;;;;;;;4.88;1.80;;;4.30;67.20;;;;;;5099909;28;20056;-55
2021/12/02 05:54:53;;;;;;;4.15;1.50;;;4.30;67.40;;;;;;5100136;28;20031;-54
2021/12/02 05:57:19;;;;;;;3.97;1.70;;;4.20;67.50;;;;;;5100073;28;20020;-55
2021/12/02 05:59:45;;;;;;;6.18;1.70;;;4.20;67.50;;;;;;5099698;28;20032;-55
2021/12/02 06:02:11;;;;;;;5.75;1.70;;;4.10;67.40;;;;;;5099218;28;20020;-55
2021/12/02 06:04:39;;;;;;;4.78;1.70;;;4.10;67.50;;;;;;5099810;28;20026;-54
2021/12/02 06:07:05;;;;;;;5.55;2.00;;;4.10;67.40;;;;;;5099589;28;20081;-55
2021/12/02 06:09:31;;;;;;;3.88;1.73;;;4.10;67.20;;;;;;5099688;28;20483;-55
2021/12/02 06:11:57;;;;;;;5.07;1.90;;;4.10;67.50;;;;;;5098916;28;20028;-54
2021/12/02 06:14:23;;;;;;;5.35;2.03;;;4.00;67.20;;;;;;5099428;28;20502;-55
2021/12/02 06:16:49;;;;;;;4.78;1.73;;;4.00;67.70;;;;;;5099682;28;20020;-56
2021/12/02 06:19:15;;;;;;;2.63;1.50;;;4.00;67.40;;;;;;5099733;28;20028;-54
2021/12/02 06:21:40;;;;;;;4.45;1.75;;;3.90;67.40;;;;;;5099393;28;20020;-52
2021/12/02 06:24:07;;;;;;;4.85;1.63;;;3.90;67.20;;;;;;5099268;28;20020;-55
2021/12/02 06:26:33;;;;;;;4.32;1.70;;;3.90;67.50;;;;;;5099187;28;20127;-57
2021/12/02 06:28:59;;;;;;;8.82;2.00;;;3.90;67.80;;;;;;5099397;28;20046;-55
2021/12/02 06:31:25;;;;;;;5.13;1.95;;;3.80;68.10;;;;;;5099570;28;20016;-56
2021/12/02 06:33:51;;;;;;;4.93;2.25;;;3.90;67.70;;;;;;5099042;28;20031;-55
2021/12/02 06:36:17;;;;;;;6.60;1.80;;;3.80;67.70;;;;;;5099146;28;20091;-56
2021/12/02 06:38:42;;;;;;;4.75;1.63;;;3.90;67.70;;;;;;5099213;28;20076;-54
2021/12/02 06:41:10;;;;;;;5.35;1.95;;;3.90;67.60;;;;;;5098799;28;20571;-54
2021/12/02 06:43:35;;;;;;;6.00;1.90;;;3.90;67.80;;;;;;5099162;28;20052;-52
2021/12/02 06:46:01;;;;;;;6.22;2.50;;;3.80;67.50;;;;;;5099023;28;20039;-56
2021/12/02 06:48:27;;;;;;;3.47;1.67;;;3.80;67.80;;;;;;5098868;28;20020;-55
2021/12/02 06:50:53;;;;;;;6.97;2.05;;;3.80;67.70;;;;;;5098986;28;20031;-56
2021/12/02 06:53:19;;;;;;;5.13;1.55;;;3.80;67.80;;;;;;5098639;28;20024;-55
2021/12/02 06:55:45;;;;;;;6.65;2.72;;;3.80;68.10;;;;;;5098528;28;20020;-60
2021/12/02 06:58:11;;;;;;;5.18;1.88;;;3.80;67.70;;;;;;5098884;28;20095;-55
2021/12/02 07:00:37;;;;;;;5.45;1.88;;;3.80;67.50;;;;;;5098770;28;20497;-58
2021/12/02 07:03:03;;;;;;;6.72;2.10;;;3.80;67.60;;;;;;5098712;28;20555;-55
2021/12/02 07:05:33;;;;;;;5.47;2.45;;;3.80;67.40;;;;;;5098828;28;20032;-54
2021/12/02 07:07:59;;;;;;;4.90;1.85;;;3.80;68.20;;;;;;5098480;28;20099;-55
2021/12/02 07:10:25;;;;;;;5.60;1.88;;;3.80;68.10;;;;;;5098674;28;20032;-55
2021/12/02 07:12:56;;;;;;;6.03;1.60;;;3.80;68.20;;;;;;5098408;28;20028;-55
2021/12/02 07:15:29;;;;;;;4.53;1.83;;;3.80;68.30;;;;;;5098732;28;20433;-55
2021/12/02 07:17:57;;;;;;;5.80;2.75;;;3.90;68.30;;;;;;5098227;28;20028;-55
2021/12/02 07:20:34;;;;;;;5.47;1.90;;;3.90;68.00;;;;;;5098540;28;20032;-56
2021/12/02 07:23:00;;;;;;;3.40;1.58;;;4.00;67.90;;;;;;5098201;28;20157;-55
2021/12/02 07:25:27;;;;;;;4.65;1.70;;;4.00;68.70;;;;;;5097950;28;20107;-55
2021/12/02 07:27:53;;;;;;;2.92;1.90;;;4.10;68.20;;;;;;5098026;28;20076;-54
2021/12/02 07:30:19;;;;;;;5.85;1.52;;;4.10;68.00;;;;;;5098399;28;20043;-55
2021/12/02 07:32:52;;;;;;;4.30;1.77;;;4.10;68.60;;;;;;5098025;28;20042;-54
2021/12/02 07:35:18;;;;;;;4.53;1.55;;;4.20;67.90;;;;;;5098317;28;20031;-54
2021/12/02 07:37:53;;;;;;;6.68;1.90;;;4.10;68.00;;;;;;5098368;28;20020;-55
2021/12/02 07:40:21;;;;;;;5.47;1.80;;;4.20;67.60;;;;;;5097957;28;20166;-55
2021/12/02 07:42:48;;;;;;;3.45;1.60;;;4.20;67.70;;;;;;5098048;28;20111;-55
2021/12/02 07:45:14;;;;;;;7.43;1.60;;;4.20;67.70;;;;;;5097895;28;20475;-56
2021/12/02 07:47:41;;;;;;;9.75;2.20;;;4.10;68.20;;;;;;5098289;28;20048;-55
2021/12/02 07:50:12;;;;;;;5.20;2.10;;;4.20;67.50;;;;;;5097751;28;20020;-55
2021/12/02 07:52:51;;;;;;;3.95;1.88;;;4.20;67.50;;;;;;5097968;28;20052;-53
2021/12/02 07:55:18;;;;;;;9.30;2.30;;;4.20;67.70;;;;;;5097811;28;20025;-56
2021/12/02 07:57:44;;;;;;;6.65;2.38;;;4.30;68.50;;;;;;5097927;28;20035;-56
2021/12/02 08:00:13;;;;;;;8.13;3.08;;;4.40;68.50;;;;;;5096533;28;20024;-55
2021/12/02 08:02:43;;;;;;;8.32;2.30;;;4.60;68.40;;;;;;5097724;28;20382;-62
2021/12/02 08:05:10;;;;;;;8.32;2.55;;;4.80;68.50;;;;;;5097816;28;20406;-55
2021/12/02 08:07:39;;;;;;;7.72;1.85;;;4.90;67.90;;;;;;5097704;28;20031;-55
2021/12/02 08:10:06;;;;;;;11.38;2.40;;;4.90;67.90;;;;;;5097597;28;20038;-55
2021/12/02 08:12:32;;;;;;;7.50;2.10;;;5.00;68.50;;;;;;5097708;28;20482;-54
2021/12/02 08:14:58;;;;;;;9.75;2.45;;;5.10;68.20;;;;;;5097776;28;20016;-56
2021/12/02 08:17:24;;;;;;;5.90;2.30;;;5.20;68.30;;;;;;5097584;28;20024;-56
2021/12/02 08:19:50;;;;;;;5.32;2.40;;;5.30;68.40;;;;;;5097518;28;20016;-56
2021/12/02 08:22:15;;;;;;;5.80;2.00;;;5.40;68.20;;;;;;5097424;28;20089;-55
2021/12/02 08:24:41;;;;;;;6.68;1.85;;;5.50;68.30;;;;;;5097442;28;20107;-56
2021/12/02 08:27:07;;;;;;;8.77;2.70;;;5.50;68.10;;;;;;5096153;28;20048;-54
2021/12/02 08:29:33;;;;;;;9.43;2.20;;;5.60;68.20;;;;;;5097358;28;20047;-55
2021/12/02 08:32:01;;;;;;;7.72;2.42;;;5.70;68.20;;;;;;5097425;28;20352;-56
2021/12/02 08:34:26;;;;;;;11.23;2.70;;;5.70;68.30;;;;;;5097113;28;20024;-55
2021/12/02 08:36:54;;;;;;;7.63;2.50;;;5.70;68.20;;;;;;5100100;28;20027;-54
2021/12/02 08:39:28;;;;;;;10.20;2.80;;;5.70;68.60;;;;;;5101278;28;20008;-56
2021/12/02 08:41:55;;;;;;;8.10;2.25;;;5.80;68.30;;;;;;5101259;28;20054;-55
2021/12/02 08:44:25;;;;;;;6.30;2.13;;;5.90;68.70;;;;;;5101194;28;20024;-55
2021/12/02 08:46:52;;;;;;;7.13;1.80;;;6.10;68.20;;;;;;5101094;28;20024;-55
2021/12/02 08:49:20;;;;;;;6.20;2.47;;;6.30;68.80;;;;;;5100893;28;20084;-55
2021/12/02 08:51:46;;;;;;;9.27;2.15;;;6.60;68.60;;;;;;5101574;28;20056;-56
2021/12/02 08:54:13;;;;;;;8.70;2.80;;;6.80;68.60;;;;;;5100425;28;20024;-56
2021/12/02 08:56:39;;;;;;;5.80;2.25;;;7.00;68.10;;;;;;5100326;28;20152;-53
2021/12/02 08:59:06;;;;;;;9.48;2.70;;;7.10;68.20;;;;;;5100681;28;20016;-54
2021/12/02 09:01:33;;;;;;;11.60;2.95;;;7.30;68.20;;;;;;5100678;28;20107;-54
2021/12/02 09:04:00;;;;;;;11.88;3.13;;;7.40;68.00;;;;;;5100574;28;20036;-56
2021/12/02 09:06:26;;;;;;;10.88;3.17;;;7.50;68.00;;;;;;5099616;28;20046;-54
2021/12/02 09:08:58;;;;;;;8.43;2.70;;;7.50;68.00;;;;;;5100451;28;20421;-53
2021/12/02 09:11:23;;;;;;;9.18;2.90;;;7.50;68.00;;;;;;5100506;28;20475;-53
2021/12/02 09:13:51;;;;;;;8.38;2.47;;;7.50;67.80;;;;;;5100447;28;20107;-55
2021/12/02 09:16:17;;;;;;;8.90;2.60;;;7.50;67.80;;;;;;5100530;28;20024;-54
2021/12/02 09:18:42;;;;;;;7.03;2.65;;;7.50;67.90;;;;;;5100259;28;20027;-53
2021/12/02 09:21:08;;;;;;;10.18;2.72;;;7.60;68.20;;;;;;5100495;28;20111;-53
2021/12/02 09:23:35;;;;;;;11.45;2.55;;;7.70;68.20;;;;;;5100305;28;20020;-54
2021/12/02 09:26:01;;;;;;;10.38;2.72;;;7.80;68.20;;;;;;5100356;28;20071;-55
2021/12/02 09:28:27;;;;;;;8.23;3.08;;;8.00;68.00;;;;;;5100331;28;20028;-56
2021/12/02 09:30:53;;;;;;;11.52;5.03;;;8.00;68.60;;;;;;5100042;28;20032;-55
2021/12/02 09:33:19;;;;;;;9.77;3.88;;;8.10;68.10;;;;;;5100195;28;20134;-54
2021/12/02 09:35:45;;;;;;;19.05;11.65;;;8.20;67.90;;;;;;5099804;28;20054;-54
2021/12/02 09:38:11;;;;;;;14.68;9.13;;;8.20;67.80;;;;;;5099996;28;20099;-56
2021/12/02 09:40:39;;;;;;;21.23;13.80;;;8.20;67.70;;;;;;5100059;28;20021;-56
2021/12/02 09:43:05;;;;;;;23.67;16.90;;;8.30;67.50;;;;;;5099479;28;20052;-55
2021/12/02 09:45:31;;;;;;;12.43;4.60;;;8.30;67.50;;;;;;5099697;28;20035;-56
2021/12/02 09:47:57;;;;;;;13.55;6.43;;;8.30;67.40;;;;;;5099943;28;20024;-56
2021/12/02 09:50:35;;;;;;;9.50;4.72;;;8.30;67.40;;;;;;5099745;28;20032;-56
2021/12/02 09:53:07;;;;;;;10.43;3.20;;;8.30;67.50;;;;;;5099725;28;20027;-56
2021/12/02 09:55:43;;;;;;;10.70;3.05;;;8.50;68.10;;;;;;5100146;28;20020;-54
2021/12/02 09:58:17;;;;;;;8.90;4.35;;;9.00;68.30;;;;;;5099402;28;20021;-55
2021/12/02 10:00:55;;;;;;;8.40;2.27;;;9.80;67.60;;;;;;5099617;28;20418;-51
2021/12/02 10:03:33;;;;;;;9.27;3.42;;;10.80;66.20;;;;;;5099350;28;20071;-56
2021/12/02 10:06:04;;;;;;;10.32;5.55;;;11.50;64.60;;;;;;5099962;28;20030;-53
2021/12/02 10:08:35;;;;;;;7.47;2.22;;;12.10;64.80;;;;;;5099143;28;20036;-56
2021/12/02 10:11:05;;;;;;;17.50;9.02;;;12.60;64.60;;;;;;5099175;28;20027;-57
2021/12/02 10:13:38;;;;;;;15.65;6.05;;;13.10;62.50;;;;;;5099198;28;20056;-57
2021/12/02 10:16:27;;;;;;;10.43;5.13;;;13.60;62.40;;;;;;5099105;28;20035;-57
2021/12/02 10:19:00;;;;;;;11.63;5.10;;;14.40;60.80;;;;;;5099456;28;20030;-57
2021/12/02 10:21:32;;;;;;;14.00;7.30;;;15.20;62.50;;;;;;5099148;28;20031;-55
2021/12/02 10:24:13;;;;;;;15.00;8.38;;;15.90;59.10;;;;;;5099200;28;20020;-56
2021/12/02 10:26:55;;;;;;;11.48;3.67;;;16.70;58.90;;;;;;5099119;28;20453;-56
2021/12/02 10:29:24;;;;;;;8.13;2.67;;;17.40;56.80;;;;;;5098815;28;20032;-57
2021/12/02 10:32:08;;;;;;;17.92;12.73;;;18.00;54.20;;;;;;5099201;28;20471;-56
2021/12/02 10:34:57;;;;;;;11.55;5.75;;;18.50;52.60;;;;;;5099357;28;20460;-54
2021/12/02 10:37:28;;;;;;;9.80;4.15;;;19.30;57.30;;;;;;5099267;28;20397;-54
2021/12/02 10:40:05;;;;;;;10.20;4.80;;;19.50;52.20;;;;;;5098670;28;20024;-55
2021/12/02 10:42:35;;;;;;;8.55;3.10;;;19.90;51.40;;;;;;5098751;28;20024;-57
2021/12/02 10:45:03;;;;;;;18.33;9.32;;;20.30;50.80;;;;;;5098590;28;20106;-55
2021/12/02 10:47:30;;;;;;;17.13;9.95;;;20.50;49.80;;;;;;5098841;28;20509;-56
2021/12/02 10:50:06;;;;;;;10.77;3.40;;;20.70;48.20;;;;;;5098804;28;20020;-56
2021/12/02 10:52:34;;;;;;;12.30;6.05;;;20.70;48.20;;;;;;5098752;28;20059;-57
2021/12/02 10:55:07;;;;;;;8.60;4.45;;;20.40;45.90;;;;;;5098398;28;20464;-57
2021/12/02 10:57:37;;;;;;;14.50;6.70;;;19.60;46.70;;;;;;5098638;28;20032;-56
2021/12/02 11:00:09;;;;;;;20.88;12.27;;;18.80;47.40;;;;;;5097602;28;20019;-57
2021/12/02 11:02:39;;;;;;;13.52;2.47;;;18.10;49.00;;;;;;5098263;28;20103;-57
2021/12/02 11:05:09;;;;;;;10.90;3.67;;;18.10;50.90;;;;;;5098594;28;20479;-56
2021/12/02 11:07:41;;;;;;;12.30;3.80;;;19.00;52.40;;;;;;5098382;28;20099;-57
2021/12/02 11:10:12;;;;;;;19.63;13.70;;;19.90;47.90;;;;;;5098315;28;20035;-57
2021/12/02 11:12:45;;;;;;;14.38;6.45;;;20.60;47.50;;;;;;5098192;28;20024;-56
2021/12/02 11:15:24;;;;;;;12.73;5.05;;;21.00;44.80;;;;;;5098611;28;20072;-56
2021/12/02 11:17:57;;;;;;;12.80;4.53;;;21.50;44.80;;;;;;5098580;28;20103;-56
2021/12/02 11:20:50;;;;;;;18.27;8.10;;;21.80;41.10;;;;;;5097807;28;20103;-56
2021/12/02 11:23:18;;;;;;;10.45;4.15;;;22.20;40.00;;;;;;5097814;28;20039;-56
2021/12/02 11:26:08;;;;;;;11.40;4.45;;;22.30;39.50;;;;;;5097890;28;20035;-55
2021/12/02 11:28:37;;;;;;;12.38;3.45;;;22.60;41.80;;;;;;5098152;28;20012;-57
2021/12/02 11:31:18;;;;;;;13.65;4.05;;;23.00;41.20;;;;;;5097916;28;20012;-57
2021/12/02 11:33:46;;;;;;;10.45;5.43;;;22.90;40.60;;;;;;5098000;28;20110;-57
2021/12/02 11:36:24;;;;;;;10.93;3.95;;;22.00;39.60;;;;;;5097951;28;20081;-56
2021/12/02 11:38:57;;;;;;;9.48;3.40;;;21.80;42.90;;;;;;5097713;28;20023;-55
2021/12/02 11:41:22;;;;;;;13.32;7.60;;;21.40;40.00;;;;;;5097626;28;20020;-56
2021/12/02 11:43:49;;;;;;;10.18;4.72;;;20.30;39.90;;;;;;5098121;28;20024;-56
2021/12/02 11:46:16;;;;;;;14.93;5.05;;;18.70;41.60;;;;;;5097588;28;20050;-56
2021/12/02 11:48:43;;;;;;;8.55;2.03;;;17.60;45.60;;;;;;5097542;28;20059;-56
2021/12/02 11:51:17;;;;;;;4.95;2.05;;;16.60;48.10;;;;;;5097668;28;20122;-57
2021/12/02 11:53:43;;;;;;;9.57;4.53;;;15.60;50.50;;;;;;5097784;28;20031;-54
2021/12/02 11:56:12;;;;;;;48.03;23.40;;;14.80;52.90;;;;;;5097834;28;20028;-56
2021/12/02 11:58:38;;;;;;;24.92;13.93;;;14.20;55.10;;;;;;5097495;28;20560;-57
2021/12/02 12:01:06;;;;;;;13.45;7.95;;;13.70;56.60;;;;;;5097536;28;20024;-54
2021/12/02 12:03:36;;;;;;;8.40;3.88;;;13.40;56.80;;;;;;5097858;28;20034;-56
2021/12/02 12:06:07;;;;;;;10.98;5.50;;;13.00;57.50;;;;;;5097060;28;20027;-56
2021/12/02 12:08:36;;;;;;;9.00;4.18;;;12.60;58.70;;;;;;5097704;28;20024;-55
2021/12/02 12:11:30;;;;;;;7.60;2.28;;;12.20;60.00;;;;;;5096607;28;20081;-55
2021/12/02 12:14:00;;;;;;;9.10;4.30;;;12.10;60.90;;;;;;5095986;28;20052;-54
2021/12/02 12:16:36;;;;;;;19.00;14.98;;;13.10;61.50;;;;;;5097360;28;20051;-52
2021/12/02 12:19:27;;;;;;;7.82;4.15;;;14.80;60.20;;;;;;5097485;28;20016;-56
2021/12/02 12:22:32;;;;;;;8.25;4.00;;;17.00;55.50;;;;;;5097144;28;20028;-53
2021/12/02 12:25:03;;;;;;;9.73;4.93;;;18.50;49.90;;;;;;5088088;28;20123;-54
2021/12/02 12:27:31;;;;;;;15.20;13.35;;;19.80;48.30;;;;;;5097097;28;20060;-54
2021/12/02 12:30:03;;;;;;;10.50;5.50;;;20.60;47.20;;;;;;5097277;28;20089;-56
2021/12/02 12:38:33;;;;;;;19.00;13.35;;;22.20;38.50;;;;;;5097527;28;20028;-52
2021/12/02 12:41:13;;;;;;;15.35;10.07;;;22.20;39.20;;;;;;5097173;28;20035;-55
2021/12/02 12:43:52;;;;;;;15.30;10.50;;;21.80;37.30;;;;;;5097113;28;20024;-56
2021/12/02 12:46:26;;;;;;;20.65;18.55;;;21.30;40.10;;;;;;5097432;28;20423;-56
2021/12/02 12:48:55;;;;;;;43.38;39.33;;;21.30;40.10;;;;;;5097960;28;20486;-56
2021/12/02 12:51:25;;;;;;;28.45;19.95;;;21.00;39.30;;;;;;5096818;28;20039;-56
2021/12/02 12:53:54;;;;;;;15.68;11.35;;;20.90;42.10;;;;;;5096902;28;20070;-55
2021/12/02 12:56:33;;;;;;;13.32;7.00;;;20.50;39.40;;;;;;5096925;28;20024;-53
2021/12/02 12:59:07;;;;;;;14.95;6.63;;;19.90;40.30;;;;;;5097256;28;20101;-55
2021/12/02 13:01:33;;;;;;;8.23;3.28;;;19.40;42.50;;;;;;5097112;28;20027;-52
2021/12/02 13:04:20;;;;;;;7.88;2.47;;;19.60;42.20;;;;;;5096757;28;20032;-55
2021/12/02 13:07:00;;;;;;;12.27;5.38;;;20.20;41.10;;;;;;5097194;28;20069;-56
2021/12/02 13:10:03;;;;;;;10.63;5.03;;;20.60;40.30;;;;;;5096845;28;20028;-56
2021/12/02 13:12:55;;;;;;;8.85;3.40;;;21.10;39.40;;;;;;5096984;28;20479;-56
2021/12/02 13:15:28;;;;;;;12.88;5.18;;;21.30;39.90;;;;;;5097435;28;20112;-57
2021/12/02 13:17:57;;;;;;;11.60;3.40;;;21.50;38.00;;;;;;5096819;28;20463;-57
2021/12/02 13:20:29;;;;;;;54.03;27.00;;;21.50;37.10;;;;;;5096247;28;20024;-56
2021/12/02 13:23:16;;;;;;;15.10;5.25;;;21.50;36.20;;;;;;5099353;28;20028;-56
2021/12/02 13:25:42;;;;;;;13.88;7.15;;;21.40;37.40;;;;;;5100371;28;20501;-55
2021/12/02 13:28:42;;;;;;;38.50;23.90;;;21.50;38.90;;;;;;5100553;28;20024;-54
2021/12/02 13:31:11;;;;;;;21.33;11.77;;;21.70;37.80;;;;;;5077747;28;20086;-56
2021/12/02 13:33:41;;;;;;;10.38;2.50;;;20.80;37.80;;;;;;5100063;28;20111;-56